sensor_id;sensor_type;location;lat;lon;timestamp;pressure;altitude;pressure_sealevel;temperature;humidity
40946;BME280;55635;50.264;11.918;2022-09-28T00:01:37;93968.72;;;9.35;83.64
40946;BME280;55635;50.264;11.918;2022-09-28T00:04:17;93974.31;;;9.45;83.75
40946;BME280;55635;50.264;11.918;2022-09-28T00:07:00;93975.41;;;9.37;83.94
40946;BME280;55635;50.264;11.918;2022-09-28T00:09:40;93972.81;;;9.30;84.52
40946;BME280;55635;50.264;11.918;2022-09-28T00:12:21;93969.13;;;9.13;85.81
40946;BME280;55635;50.264;11.918;2022-09-28T00:15:02;93965.47;;;8.90;86.28
40946;BME280;55635;50.264;11.918;2022-09-28T00:17:43;93961.81;;;8.84;86.73
40946;BME280;55635;50.264;11.918;2022-09-28T00:20:24;93949.59;;;8.90;87.41
40946;BME280;55635;50.264;11.918;2022-09-28T00:23:05;93940.84;;;8.89;87.37
40946;BME280;55635;50.264;11.918;2022-09-28T00:25:46;93936.69;;;8.75;87.91
40946;BME280;55635;50.264;11.918;2022-09-28T00:28:26;93938.91;;;8.78;88.89
40946;BME280;55635;50.264;11.918;2022-09-28T00:31:07;93937.66;;;8.56;88.88
40946;BME280;55635;50.264;11.918;2022-09-28T00:33:50;93932.34;;;8.31;90.50
40946;BME280;55635;50.264;11.918;2022-09-28T00:36:31;93924.22;;;8.57;91.12
40946;BME280;55635;50.264;11.918;2022-09-28T00:39:14;93912.59;;;8.40;91.52
40946;BME280;55635;50.264;11.918;2022-09-28T00:41:55;93918.75;;;8.59;91.37
40946;BME280;55635;50.264;11.918;2022-09-28T00:44:42;93917.50;;;8.30;91.35
40946;BME280;55635;50.264;11.918;2022-09-28T00:53:14;93917.81;;;8.47;90.60
40946;BME280;55635;50.264;11.918;2022-09-28T00:56:01;93915.00;;;8.42;90.90
40946;BME280;55635;50.264;11.918;2022-09-28T00:58:46;93895.53;;;8.36;91.05
40946;BME280;55635;50.264;11.918;2022-09-28T01:01:29;93907.78;;;8.55;90.46
40946;BME280;55635;50.264;11.918;2022-09-28T01:04:10;93903.81;;;8.46;90.92
40946;BME280;55635;50.264;11.918;2022-09-28T01:06:51;93898.72;;;8.69;90.17
40946;BME280;55635;50.264;11.918;2022-09-28T01:09:31;93892.31;;;8.34;89.57
40946;BME280;55635;50.264;11.918;2022-09-28T01:12:12;93882.00;;;8.19;90.97
40946;BME280;55635;50.264;11.918;2022-09-28T01:14:53;93880.06;;;8.40;90.56
40946;BME280;55635;50.264;11.918;2022-09-28T01:20:53;93877.78;;;8.50;90.83
40946;BME280;55635;50.264;11.918;2022-09-28T01:27:00;93872.44;;;8.25;90.45
40946;BME280;55635;50.264;11.918;2022-09-28T01:29:54;93869.19;;;8.23;89.72
40946;BME280;55635;50.264;11.918;2022-09-28T01:32:57;93871.34;;;8.39;89.44
40946;BME280;55635;50.264;11.918;2022-09-28T01:35:46;93858.84;;;8.28;88.96
40946;BME280;55635;50.264;11.918;2022-09-28T01:38:32;93852.75;;;8.28;89.11
40946;BME280;55635;50.264;11.918;2022-09-28T01:41:14;93860.34;;;8.42;88.29
40946;BME280;55635;50.264;11.918;2022-09-28T01:43:59;93856.50;;;8.38;89.58
40946;BME280;55635;50.264;11.918;2022-09-28T01:46:47;93853.97;;;8.25;89.58
40946;BME280;55635;50.264;11.918;2022-09-28T01:49:33;93849.69;;;8.31;89.54
40946;BME280;55635;50.264;11.918;2022-09-28T01:52:23;93847.78;;;8.62;88.55
40946;BME280;55635;50.264;11.918;2022-09-28T01:55:23;93852.31;;;8.31;86.85
40946;BME280;55635;50.264;11.918;2022-09-28T01:58:11;93856.75;;;8.37;86.59
40946;BME280;55635;50.264;11.918;2022-09-28T02:01:08;93811.97;;;8.17;85.36
40946;BME280;55635;50.264;11.918;2022-09-28T02:06:55;93830.28;;;8.12;87.26
40946;BME280;55635;50.264;11.918;2022-09-28T02:09:41;93849.53;;;7.88;87.85
40946;BME280;55635;50.264;11.918;2022-09-28T02:12:41;93836.94;;;7.90;88.37
40946;BME280;55635;50.264;11.918;2022-09-28T02:15:49;93854.78;;;7.94;88.83
40946;BME280;55635;50.264;11.918;2022-09-28T02:18:31;93833.56;;;8.07;88.21
40946;BME280;55635;50.264;11.918;2022-09-28T02:21:14;93834.53;;;7.88;88.42
40946;BME280;55635;50.264;11.918;2022-09-28T02:24:06;93810.31;;;7.98;89.61
40946;BME280;55635;50.264;11.918;2022-09-28T02:26:50;93813.22;;;8.14;88.52
40946;BME280;55635;50.264;11.918;2022-09-28T02:29:31;93809.50;;;8.29;88.08
40946;BME280;55635;50.264;11.918;2022-09-28T02:32:12;93797.22;;;8.09;88.73
40946;BME280;55635;50.264;11.918;2022-09-28T02:34:54;93800.53;;;7.98;89.39
40946;BME280;55635;50.264;11.918;2022-09-28T02:37:35;93808.44;;;7.98;90.08
40946;BME280;55635;50.264;11.918;2022-09-28T02:40:21;93794.94;;;7.88;90.97
40946;BME280;55635;50.264;11.918;2022-09-28T02:43:15;93800.91;;;8.33;88.97
40946;BME280;55635;50.264;11.918;2022-09-28T02:46:13;93793.00;;;8.33;88.67
40946;BME280;55635;50.264;11.918;2022-09-28T03:04:31;93790.06;;;7.92;89.87
40946;BME280;55635;50.264;11.918;2022-09-28T03:07:59;93783.69;;;8.31;89.65
40946;BME280;55635;50.264;11.918;2022-09-28T03:11:00;93774.09;;;8.05;88.51
40946;BME280;55635;50.264;11.918;2022-09-28T03:13:42;93778.63;;;8.22;89.14
40946;BME280;55635;50.264;11.918;2022-09-28T03:16:23;93772.59;;;8.15;89.17
40946;BME280;55635;50.264;11.918;2022-09-28T03:19:04;93771.75;;;8.21;88.80
40946;BME280;55635;50.264;11.918;2022-09-28T03:21:45;93766.44;;;8.28;89.07
40946;BME280;55635;50.264;11.918;2022-09-28T03:24:26;93756.47;;;8.23;88.54
40946;BME280;55635;50.264;11.918;2022-09-28T03:27:08;93753.38;;;8.33;89.54
40946;BME280;55635;50.264;11.918;2022-09-28T03:29:49;93760.75;;;8.25;88.77
40946;BME280;55635;50.264;11.918;2022-09-28T03:32:29;93756.78;;;8.15;89.76
40946;BME280;55635;50.264;11.918;2022-09-28T03:35:10;93755.91;;;8.21;89.49
40946;BME280;55635;50.264;11.918;2022-09-28T03:37:55;93747.28;;;8.33;89.54
40946;BME280;55635;50.264;11.918;2022-09-28T03:40:37;93753.47;;;8.20;89.77
40946;BME280;55635;50.264;11.918;2022-09-28T03:43:18;93742.63;;;8.10;90.54
40946;BME280;55635;50.264;11.918;2022-09-28T03:46:00;93743.03;;;8.07;90.68
40946;BME280;55635;50.264;11.918;2022-09-28T03:48:43;93732.09;;;7.79;92.19
40946;BME280;55635;50.264;11.918;2022-09-28T03:51:24;93728.97;;;7.88;92.60
40946;BME280;55635;50.264;11.918;2022-09-28T03:54:07;93729.97;;;7.62;93.50
40946;BME280;55635;50.264;11.918;2022-09-28T03:56:48;93717.22;;;7.84;94.04
40946;BME280;55635;50.264;11.918;2022-09-28T03:59:30;93716.16;;;7.67;94.43
40946;BME280;55635;50.264;11.918;2022-09-28T04:02:11;93716.66;;;7.82;95.17
40946;BME280;55635;50.264;11.918;2022-09-28T04:04:52;93709.31;;;7.84;95.02
40946;BME280;55635;50.264;11.918;2022-09-28T04:07:33;93702.16;;;7.91;95.32
40946;BME280;55635;50.264;11.918;2022-09-28T04:10:14;93695.13;;;7.85;95.45
40946;BME280;55635;50.264;11.918;2022-09-28T04:12:55;93687.50;;;7.95;95.38
40946;BME280;55635;50.264;11.918;2022-09-28T04:15:37;93677.72;;;7.78;96.16
40946;BME280;55635;50.264;11.918;2022-09-28T04:18:19;93663.75;;;7.95;95.90
40946;BME280;55635;50.264;11.918;2022-09-28T04:21:19;93659.81;;;8.04;95.92
40946;BME280;55635;50.264;11.918;2022-09-28T04:24:09;93651.13;;;8.04;95.77
40946;BME280;55635;50.264;11.918;2022-09-28T04:26:50;93644.66;;;8.00;96.02
40946;BME280;55635;50.264;11.918;2022-09-28T04:29:32;93652.06;;;8.09;95.22
40946;BME280;55635;50.264;11.918;2022-09-28T04:32:13;93648.22;;;7.87;95.89
40946;BME280;55635;50.264;11.918;2022-09-28T04:34:54;93648.47;;;8.04;95.27
40946;BME280;55635;50.264;11.918;2022-09-28T04:37:35;93640.91;;;8.07;95.12
40946;BME280;55635;50.264;11.918;2022-09-28T04:40:16;93649.00;;;8.12;95.29
40946;BME280;55635;50.264;11.918;2022-09-28T04:42:57;93652.63;;;7.93;96.05
40946;BME280;55635;50.264;11.918;2022-09-28T04:45:38;93644.16;;;8.09;95.44
40946;BME280;55635;50.264;11.918;2022-09-28T04:48:24;93648.97;;;7.94;94.82
40946;BME280;55635;50.264;11.918;2022-09-28T04:51:22;93660.47;;;8.00;95.33
40946;BME280;55635;50.264;11.918;2022-09-28T04:54:04;93654.38;;;7.99;95.52
40946;BME280;55635;50.264;11.918;2022-09-28T04:56:44;93656.72;;;7.89;95.48
40946;BME280;55635;50.264;11.918;2022-09-28T04:59:25;93630.13;;;7.91;94.70
40946;BME280;55635;50.264;11.918;2022-09-28T05:02:06;93624.31;;;7.82;93.13
40946;BME280;55635;50.264;11.918;2022-09-28T05:05:05;93618.19;;;7.88;93.95
40946;BME280;55635;50.264;11.918;2022-09-28T05:08:05;93619.44;;;7.86;93.51
40946;BME280;55635;50.264;11.918;2022-09-28T05:10:46;93610.38;;;7.75;92.75
40946;BME280;55635;50.264;11.918;2022-09-28T05:13:27;93597.06;;;7.88;92.05
40946;BME280;55635;50.264;11.918;2022-09-28T05:16:08;93597.28;;;7.87;92.84
40946;BME280;55635;50.264;11.918;2022-09-28T05:19:03;93595.94;;;7.78;92.98
40946;BME280;55635;50.264;11.918;2022-09-28T05:21:46;93588.63;;;7.80;92.30
40946;BME280;55635;50.264;11.918;2022-09-28T05:24:28;93583.28;;;7.86;92.19
40946;BME280;55635;50.264;11.918;2022-09-28T05:27:09;93601.09;;;7.48;93.00
40946;BME280;55635;50.264;11.918;2022-09-28T05:29:50;93598.22;;;7.49;94.54
40946;BME280;55635;50.264;11.918;2022-09-28T05:32:54;93599.94;;;7.62;94.34
40946;BME280;55635;50.264;11.918;2022-09-28T05:35:47;93604.34;;;7.43;95.08
40946;BME280;55635;50.264;11.918;2022-09-28T05:38:28;93588.84;;;7.78;94.15
40946;BME280;55635;50.264;11.918;2022-09-28T05:41:09;93578.69;;;7.57;92.88
40946;BME280;55635;50.264;11.918;2022-09-28T05:43:51;93583.69;;;7.65;92.97
40946;BME280;55635;50.264;11.918;2022-09-28T05:46:32;93584.09;;;7.87;92.33
40946;BME280;55635;50.264;11.918;2022-09-28T05:49:14;93576.22;;;7.62;92.65
40946;BME280;55635;50.264;11.918;2022-09-28T05:51:55;93575.69;;;7.53;93.16
40946;BME280;55635;50.264;11.918;2022-09-28T05:54:36;93568.25;;;7.44;93.52
40946;BME280;55635;50.264;11.918;2022-09-28T05:57:17;93578.72;;;7.32;94.37
40946;BME280;55635;50.264;11.918;2022-09-28T05:59:58;93571.81;;;7.56;93.86
40946;BME280;55635;50.264;11.918;2022-09-28T06:02:39;93568.91;;;7.64;93.58
40946;BME280;55635;50.264;11.918;2022-09-28T06:05:23;93553.22;;;7.69;94.18
40946;BME280;55635;50.264;11.918;2022-09-28T06:08:05;93558.94;;;7.66;94.04
40946;BME280;55635;50.264;11.918;2022-09-28T06:10:48;93550.47;;;7.82;93.25
40946;BME280;55635;50.264;11.918;2022-09-28T06:13:29;93554.19;;;7.75;93.99
40946;BME280;55635;50.264;11.918;2022-09-28T06:16:14;93545.28;;;7.51;95.62
40946;BME280;55635;50.264;11.918;2022-09-28T06:18:56;93536.81;;;7.67;94.87
40946;BME280;55635;50.264;11.918;2022-09-28T06:21:49;93537.09;;;7.95;94.21
40946;BME280;55635;50.264;11.918;2022-09-28T06:24:30;93538.88;;;8.01;94.04
40946;BME280;55635;50.264;11.918;2022-09-28T06:27:11;93528.47;;;8.06;94.45
40946;BME280;55635;50.264;11.918;2022-09-28T06:29:51;93518.63;;;7.77;94.93
40946;BME280;55635;50.264;11.918;2022-09-28T06:32:33;93516.81;;;7.78;94.98
40946;BME280;55635;50.264;11.918;2022-09-28T06:35:13;93529.03;;;8.08;94.89
40946;BME280;55635;50.264;11.918;2022-09-28T06:37:55;93524.66;;;8.02;94.62
40946;BME280;55635;50.264;11.918;2022-09-28T06:40:36;93515.06;;;7.90;94.86
40946;BME280;55635;50.264;11.918;2022-09-28T06:43:17;93520.19;;;8.03;94.84
40946;BME280;55635;50.264;11.918;2022-09-28T06:46:31;93534.56;;;8.07;95.93
40946;BME280;55635;50.264;11.918;2022-09-28T06:49:30;93519.94;;;8.04;95.72
40946;BME280;55635;50.264;11.918;2022-09-28T06:52:29;93530.38;;;7.81;95.74
40946;BME280;55635;50.264;11.918;2022-09-28T06:55:27;93516.25;;;7.76;96.04
40946;BME280;55635;50.264;11.918;2022-09-28T06:58:12;93513.28;;;8.02;96.44
40946;BME280;55635;50.264;11.918;2022-09-28T07:00:55;93520.91;;;8.10;96.48
40946;BME280;55635;50.264;11.918;2022-09-28T07:03:40;93530.31;;;8.06;96.69
40946;BME280;55635;50.264;11.918;2022-09-28T07:06:24;93525.56;;;8.26;96.03
40946;BME280;55635;50.264;11.918;2022-09-28T07:09:25;93527.03;;;8.58;95.17
40946;BME280;55635;50.264;11.918;2022-09-28T07:12:34;93525.94;;;8.48;95.80
40946;BME280;55635;50.264;11.918;2022-09-28T07:15:18;93525.16;;;8.29;96.68
40946;BME280;55635;50.264;11.918;2022-09-28T07:18:01;93529.47;;;8.42;96.69
40946;BME280;55635;50.264;11.918;2022-09-28T07:20:42;93524.44;;;8.22;96.94
40946;BME280;55635;50.264;11.918;2022-09-28T07:23:25;93528.13;;;8.51;97.49
40946;BME280;55635;50.264;11.918;2022-09-28T07:26:33;93531.25;;;8.59;96.95
40946;BME280;55635;50.264;11.918;2022-09-28T07:29:46;93520.38;;;8.67;96.48
40946;BME280;55635;50.264;11.918;2022-09-28T07:32:45;93524.59;;;8.98;96.17
40946;BME280;55635;50.264;11.918;2022-09-28T07:35:53;93525.06;;;8.95;96.03
40946;BME280;55635;50.264;11.918;2022-09-28T07:38:37;93530.09;;;8.97;97.40
40946;BME280;55635;50.264;11.918;2022-09-28T07:41:17;93531.28;;;9.12;97.66
40946;BME280;55635;50.264;11.918;2022-09-28T07:44:04;93538.66;;;9.10;96.91
40946;BME280;55635;50.264;11.918;2022-09-28T07:46:46;93545.34;;;9.24;97.36
40946;BME280;55635;50.264;11.918;2022-09-28T07:49:38;93535.81;;;9.47;96.62
40946;BME280;55635;50.264;11.918;2022-09-28T07:52:42;93535.59;;;9.71;96.31
40946;BME280;55635;50.264;11.918;2022-09-28T07:55:40;93538.75;;;9.15;96.08
40946;BME280;55635;50.264;11.918;2022-09-28T07:58:36;93541.41;;;9.15;96.12
40946;BME280;55635;50.264;11.918;2022-09-28T08:01:40;93543.16;;;9.33;95.41
40946;BME280;55635;50.264;11.918;2022-09-28T08:04:24;93546.03;;;9.43;95.44
40946;BME280;55635;50.264;11.918;2022-09-28T08:07:10;93555.91;;;9.94;94.52
40946;BME280;55635;50.264;11.918;2022-09-28T08:09:51;93555.69;;;10.07;93.49
40946;BME280;55635;50.264;11.918;2022-09-28T08:12:41;93560.19;;;9.37;93.68
40946;BME280;55635;50.264;11.918;2022-09-28T08:15:28;93563.53;;;9.79;94.47
40946;BME280;55635;50.264;11.918;2022-09-28T08:18:31;93571.94;;;9.76;93.07
40946;BME280;55635;50.264;11.918;2022-09-28T08:21:12;93565.97;;;9.69;94.12
40946;BME280;55635;50.264;11.918;2022-09-28T08:24:15;93568.13;;;9.49;95.12
40946;BME280;55635;50.264;11.918;2022-09-28T08:26:57;93572.97;;;9.98;93.16
40946;BME280;55635;50.264;11.918;2022-09-28T08:29:42;93577.22;;;10.22;94.01
40946;BME280;55635;50.264;11.918;2022-09-28T08:32:45;93581.59;;;9.82;91.62
40946;BME280;55635;50.264;11.918;2022-09-28T08:35:54;93588.84;;;10.21;91.76
40946;BME280;55635;50.264;11.918;2022-09-28T08:38:57;93582.69;;;10.84;90.16
40946;BME280;55635;50.264;11.918;2022-09-28T08:45:23;93600.56;;;11.50;84.89
40946;BME280;55635;50.264;11.918;2022-09-28T08:48:32;93606.47;;;11.69;83.47
40946;BME280;55635;50.264;11.918;2022-09-28T08:51:54;93609.72;;;11.71;81.50
40946;BME280;55635;50.264;11.918;2022-09-28T08:54:49;93612.28;;;11.82;81.22
40946;BME280;55635;50.264;11.918;2022-09-28T09:00:47;93607.75;;;11.99;79.60
40946;BME280;55635;50.264;11.918;2022-09-28T09:03:36;93608.47;;;12.12;79.95
40946;BME280;55635;50.264;11.918;2022-09-28T09:10:16;93612.81;;;12.18;79.80
40946;BME280;55635;50.264;11.918;2022-09-28T09:13:15;93619.69;;;11.97;77.42
40946;BME280;55635;50.264;11.918;2022-09-28T09:16:16;93621.94;;;11.72;78.79
40946;BME280;55635;50.264;11.918;2022-09-28T09:22:54;93634.28;;;11.50;80.55
40946;BME280;55635;50.264;11.918;2022-09-28T09:25:45;93630.94;;;11.87;81.29
40946;BME280;55635;50.264;11.918;2022-09-28T09:47:55;93659.63;;;11.29;82.09
40946;BME280;55635;50.264;11.918;2022-09-28T09:50:54;93669.16;;;11.41;82.12
40946;BME280;55635;50.264;11.918;2022-09-28T09:53:43;93666.34;;;11.76;81.18
40946;BME280;55635;50.264;11.918;2022-09-28T09:56:45;93669.09;;;11.98;80.53
40946;BME280;55635;50.264;11.918;2022-09-28T09:59:50;93667.25;;;11.82;77.61
40946;BME280;55635;50.264;11.918;2022-09-28T10:02:38;93675.34;;;11.75;78.67
40946;BME280;55635;50.264;11.918;2022-09-28T10:05:30;93676.00;;;11.82;79.07
40946;BME280;55635;50.264;11.918;2022-09-28T10:08:16;93684.06;;;12.21;77.29
40946;BME280;55635;50.264;11.918;2022-09-28T10:11:09;93684.69;;;12.44;76.48
40946;BME280;55635;50.264;11.918;2022-09-28T10:13:55;93689.75;;;12.46;79.06
40946;BME280;55635;50.264;11.918;2022-09-28T10:16:54;93695.81;;;12.25;76.10
40946;BME280;55635;50.264;11.918;2022-09-28T10:19:55;93693.00;;;11.98;76.34
40946;BME280;55635;50.264;11.918;2022-09-28T10:23:11;93703.19;;;11.73;75.86
40946;BME280;55635;50.264;11.918;2022-09-28T10:26:01;93705.00;;;11.56;76.58
40946;BME280;55635;50.264;11.918;2022-09-28T10:28:58;93712.19;;;11.72;78.61
40946;BME280;55635;50.264;11.918;2022-09-28T10:31:48;93707.69;;;11.72;79.24
40946;BME280;55635;50.264;11.918;2022-09-28T10:35:18;93718.63;;;11.47;76.88
40946;BME280;55635;50.264;11.918;2022-09-28T10:38:06;93723.13;;;11.47;78.10
40946;BME280;55635;50.264;11.918;2022-09-28T10:41:20;93724.13;;;11.58;77.50
40946;BME280;55635;50.264;11.918;2022-09-28T10:44:10;93724.28;;;11.79;75.03
40946;BME280;55635;50.264;11.918;2022-09-28T10:47:13;93724.38;;;12.18;75.56
40946;BME280;55635;50.264;11.918;2022-09-28T10:49:55;93722.38;;;12.25;75.23
40946;BME280;55635;50.264;11.918;2022-09-28T10:52:40;93718.69;;;12.26;74.88
40946;BME280;55635;50.264;11.918;2022-09-28T10:55:31;93720.78;;;12.24;75.02
40946;BME280;55635;50.264;11.918;2022-09-28T10:58:37;93727.53;;;12.15;73.85
40946;BME280;55635;50.264;11.918;2022-09-28T11:01:29;93731.97;;;12.26;74.61
40946;BME280;55635;50.264;11.918;2022-09-28T11:04:17;93731.25;;;12.30;73.38
40946;BME280;55635;50.264;11.918;2022-09-28T11:06:59;93732.50;;;12.61;72.85
40946;BME280;55635;50.264;11.918;2022-09-28T11:09:41;93730.03;;;12.93;72.16
40946;BME280;55635;50.264;11.918;2022-09-28T11:12:27;93725.56;;;13.15;72.60
40946;BME280;55635;50.264;11.918;2022-09-28T11:15:18;93725.41;;;13.97;70.54
40946;BME280;55635;50.264;11.918;2022-09-28T11:18:24;93725.75;;;14.05;68.99
40946;BME280;55635;50.264;11.918;2022-09-28T11:21:09;93728.94;;;14.34;69.08
40946;BME280;55635;50.264;11.918;2022-09-28T11:26:47;93722.88;;;13.58;67.27
40946;BME280;55635;50.264;11.918;2022-09-28T11:29:40;93721.84;;;14.82;69.08
40946;BME280;55635;50.264;11.918;2022-09-28T11:32:48;93729.25;;;14.11;65.94
40946;BME280;55635;50.264;11.918;2022-09-28T11:35:45;93727.81;;;13.98;67.42
40946;BME280;55635;50.264;11.918;2022-09-28T11:42:01;93736.06;;;13.05;67.02
40946;BME280;55635;50.264;11.918;2022-09-28T11:44:48;93744.25;;;12.82;69.23
40946;BME280;55635;50.264;11.918;2022-09-28T11:53:35;93752.25;;;11.98;71.42
40946;BME280;55635;50.264;11.918;2022-09-28T11:56:37;93749.94;;;11.62;72.13
40946;BME280;55635;50.264;11.918;2022-09-28T12:02:15;93761.84;;;12.16;75.25
40946;BME280;55635;50.264;11.918;2022-09-28T12:07:53;93775.97;;;13.05;72.20
40946;BME280;55635;50.264;11.918;2022-09-28T12:14:37;93776.16;;;15.49;63.42
40946;BME280;55635;50.264;11.918;2022-09-28T12:17:39;93766.63;;;15.73;58.91
40946;BME280;55635;50.264;11.918;2022-09-28T12:20:28;93764.53;;;15.81;59.48
40946;BME280;55635;50.264;11.918;2022-09-28T12:25:59;93753.59;;;14.83;60.95
40946;BME280;55635;50.264;11.918;2022-09-28T12:28:44;93759.31;;;15.02;59.72
40946;BME280;55635;50.264;11.918;2022-09-28T12:31:38;93754.97;;;14.49;62.31
40946;BME280;55635;50.264;11.918;2022-09-28T12:34:21;93758.47;;;14.01;63.54
40946;BME280;55635;50.264;11.918;2022-09-28T12:37:18;93752.75;;;13.60;63.09
40946;BME280;55635;50.264;11.918;2022-09-28T12:46:30;93772.41;;;13.16;68.75
40946;BME280;55635;50.264;11.918;2022-09-28T12:55:20;93791.50;;;12.75;66.69
40946;BME280;55635;50.264;11.918;2022-09-28T12:58:29;93795.31;;;13.00;70.36
40946;BME280;55635;50.264;11.918;2022-09-28T13:01:40;93791.63;;;12.85;70.72
40946;BME280;55635;50.264;11.918;2022-09-28T13:04:44;93806.28;;;12.87;68.88
40946;BME280;55635;50.264;11.918;2022-09-28T13:07:40;93807.25;;;12.81;69.85
40946;BME280;55635;50.264;11.918;2022-09-28T13:19:31;93819.34;;;12.22;72.00
40946;BME280;55635;50.264;11.918;2022-09-28T13:25:12;93814.53;;;12.69;70.75
40946;BME280;55635;50.264;11.918;2022-09-28T13:27:58;93821.16;;;13.82;70.29
40946;BME280;55635;50.264;11.918;2022-09-28T13:30:40;93812.53;;;14.23;67.81
40946;BME280;55635;50.264;11.918;2022-09-28T13:33:31;93807.56;;;14.58;66.79
40946;BME280;55635;50.264;11.918;2022-09-28T13:39:58;93812.25;;;13.49;69.62
40946;BME280;55635;50.264;11.918;2022-09-28T13:45:28;93816.59;;;13.00;65.12
40946;BME280;55635;50.264;11.918;2022-09-28T13:48:16;93825.47;;;12.89;66.78
40946;BME280;55635;50.264;11.918;2022-09-28T13:51:21;93815.53;;;13.56;65.14
40946;BME280;55635;50.264;11.918;2022-09-28T14:03:03;93820.81;;;14.80;60.69
40946;BME280;55635;50.264;11.918;2022-09-28T14:08:47;93809.91;;;15.23;58.35
40946;BME280;55635;50.264;11.918;2022-09-28T14:11:59;93816.41;;;15.90;60.13
40946;BME280;55635;50.264;11.918;2022-09-28T14:14:49;93821.91;;;14.84;62.04
40946;BME280;55635;50.264;11.918;2022-09-28T14:20:24;93824.34;;;15.69;57.51
40946;BME280;55635;50.264;11.918;2022-09-28T14:23:13;93822.44;;;16.47;56.51
40946;BME280;55635;50.264;11.918;2022-09-28T14:31:39;93824.06;;;14.87;58.62
40946;BME280;55635;50.264;11.918;2022-09-28T14:34:31;93816.47;;;14.74;59.98
40946;BME280;55635;50.264;11.918;2022-09-28T14:41:04;93828.16;;;15.00;60.06
40946;BME280;55635;50.264;11.918;2022-09-28T14:46:43;93827.94;;;14.69;63.46
40946;BME280;55635;50.264;11.918;2022-09-28T14:52:11;93839.84;;;14.89;59.97
40946;BME280;55635;50.264;11.918;2022-09-28T14:54:56;93834.69;;;14.50;60.01
40946;BME280;55635;50.264;11.918;2022-09-28T14:57:38;93838.47;;;14.54;59.60
40946;BME280;55635;50.264;11.918;2022-09-28T15:00:22;93830.06;;;14.67;61.42
40946;BME280;55635;50.264;11.918;2022-09-28T15:03:05;93837.63;;;14.00;58.95
40946;BME280;55635;50.264;11.918;2022-09-28T15:05:46;93835.72;;;13.96;60.91
40946;BME280;55635;50.264;11.918;2022-09-28T15:08:38;93839.03;;;14.08;62.00
40946;BME280;55635;50.264;11.918;2022-09-28T15:11:21;93837.75;;;13.89;62.51
40946;BME280;55635;50.264;11.918;2022-09-28T15:14:05;93853.94;;;13.60;62.63
40946;BME280;55635;50.264;11.918;2022-09-28T15:16:47;93847.09;;;13.09;63.17
40946;BME280;55635;50.264;11.918;2022-09-28T15:23:01;93862.38;;;12.69;64.49
40946;BME280;55635;50.264;11.918;2022-09-28T15:25:52;93867.16;;;12.50;64.18
40946;BME280;55635;50.264;11.918;2022-09-28T15:28:34;93867.78;;;12.57;64.53
40946;BME280;55635;50.264;11.918;2022-09-28T15:31:18;93861.66;;;12.90;63.41
40946;BME280;55635;50.264;11.918;2022-09-28T15:33:59;93865.44;;;13.28;64.66
40946;BME280;55635;50.264;11.918;2022-09-28T15:36:58;93875.03;;;13.45;61.36
40946;BME280;55635;50.264;11.918;2022-09-28T15:39:39;93872.09;;;13.63;61.40
40946;BME280;55635;50.264;11.918;2022-09-28T15:42:20;93872.06;;;13.42;61.76
40946;BME280;55635;50.264;11.918;2022-09-28T15:45:27;93886.56;;;13.01;62.76
40946;BME280;55635;50.264;11.918;2022-09-28T15:51:16;93885.94;;;12.77;64.92
40946;BME280;55635;50.264;11.918;2022-09-28T15:53:59;93896.25;;;12.74;65.24
40946;BME280;55635;50.264;11.918;2022-09-28T15:56:50;93890.66;;;12.75;65.57
40946;BME280;55635;50.264;11.918;2022-09-28T15:59:38;93884.13;;;12.66;66.30
40946;BME280;55635;50.264;11.918;2022-09-28T16:02:20;93878.06;;;12.54;67.01
40946;BME280;55635;50.264;11.918;2022-09-28T16:05:29;93895.25;;;12.63;67.05
40946;BME280;55635;50.264;11.918;2022-09-28T16:08:20;93885.28;;;12.53;66.05
40946;BME280;55635;50.264;11.918;2022-09-28T16:16:48;93892.50;;;12.41;66.07
40946;BME280;55635;50.264;11.918;2022-09-28T16:19:36;93899.22;;;12.04;66.17
40946;BME280;55635;50.264;11.918;2022-09-28T16:22:19;93900.47;;;12.13;66.75
40946;BME280;55635;50.264;11.918;2022-09-28T16:25:01;93898.03;;;12.12;66.83
40946;BME280;55635;50.264;11.918;2022-09-28T16:27:42;93900.00;;;12.16;66.55
40946;BME280;55635;50.264;11.918;2022-09-28T16:30:26;93905.03;;;12.01;66.80
40946;BME280;55635;50.264;11.918;2022-09-28T16:33:39;93912.22;;;11.77;66.06
40946;BME280;55635;50.264;11.918;2022-09-28T16:36:21;93903.78;;;11.69;66.23
40946;BME280;55635;50.264;11.918;2022-09-28T16:39:02;93904.19;;;11.49;66.48
40946;BME280;55635;50.264;11.918;2022-09-28T16:41:50;93918.34;;;11.55;66.42
40946;BME280;55635;50.264;11.918;2022-09-28T16:44:32;93925.53;;;11.42;66.96
40946;BME280;55635;50.264;11.918;2022-09-28T16:47:16;93917.22;;;11.27;67.41
40946;BME280;55635;50.264;11.918;2022-09-28T16:49:57;93918.16;;;11.21;67.14
40946;BME280;55635;50.264;11.918;2022-09-28T16:52:38;93924.13;;;11.05;68.07
40946;BME280;55635;50.264;11.918;2022-09-28T16:55:37;93930.00;;;11.07;68.79
40946;BME280;55635;50.264;11.918;2022-09-28T16:58:18;93934.38;;;10.90;68.80
40946;BME280;55635;50.264;11.918;2022-09-28T17:00:59;93931.00;;;10.83;69.39
40946;BME280;55635;50.264;11.918;2022-09-28T17:03:40;93943.84;;;10.98;68.83
40946;BME280;55635;50.264;11.918;2022-09-28T17:06:26;93947.44;;;11.03;69.02
40946;BME280;55635;50.264;11.918;2022-09-28T17:09:10;93946.25;;;10.99;69.02
40946;BME280;55635;50.264;11.918;2022-09-28T17:11:51;93957.50;;;10.83;70.20
40946;BME280;55635;50.264;11.918;2022-09-28T17:14:36;93955.84;;;10.59;70.86
40946;BME280;55635;50.264;11.918;2022-09-28T17:17:17;93964.53;;;10.36;71.49
40946;BME280;55635;50.264;11.918;2022-09-28T17:19:58;93969.31;;;10.27;72.74
40946;BME280;55635;50.264;11.918;2022-09-28T17:22:39;93967.72;;;10.08;73.15
40946;BME280;55635;50.264;11.918;2022-09-28T17:25:21;93965.72;;;10.22;72.89
40946;BME280;55635;50.264;11.918;2022-09-28T17:28:02;93966.97;;;10.19;73.32